createdAt,value
2022-11-23T00:01:00.236Z,23.77
2022-11-23T00:03:27.544Z,24.52
2022-11-23T00:05:54.864Z,24.65
2022-11-23T00:08:22.254Z,26.50
2022-11-23T00:10:51.014Z,29.92
2022-11-23T00:13:18.661Z,30.37
2022-11-23T00:15:46.052Z,29.10
2022-11-23T00:18:13.388Z,26.45
2022-11-23T00:20:41.095Z,25.63
2022-11-23T00:23:09.617Z,26.73
2022-11-23T00:25:37.097Z,33.38
2022-11-23T00:28:05.954Z,28.05
2022-11-23T00:30:33.328Z,32.63
2022-11-23T00:33:00.658Z,26.45
2022-11-23T00:35:30.969Z,32.22
2022-11-23T00:38:01.384Z,31.42
2022-11-23T00:40:29.169Z,27.15
2022-11-23T00:42:56.496Z,25.23
2022-11-23T00:45:25.882Z,26.65
2022-11-23T00:47:54.094Z,26.05
2022-11-23T00:50:23.065Z,27.47
2022-11-23T00:52:51.435Z,26.40
2022-11-23T00:55:18.765Z,29.27
2022-11-23T00:57:46.146Z,29.27
2022-11-23T01:00:14.239Z,25.15
2022-11-23T01:02:43.011Z,30.00
2022-11-23T01:05:10.646Z,26.83
2022-11-23T01:07:38.302Z,25.90
2022-11-23T01:10:06.625Z,22.92
2022-11-23T01:12:34.580Z,25.23
2022-11-23T01:15:02.027Z,34.85
2022-11-23T01:17:29.466Z,23.35
2022-11-23T01:19:58.241Z,21.67
2022-11-23T01:22:25.644Z,22.47
2022-11-23T01:24:52.973Z,23.55
2022-11-23T01:27:20.352Z,20.75
2022-11-23T01:29:47.728Z,25.45
2022-11-23T01:32:15.089Z,24.75
2022-11-23T01:34:42.524Z,30.05
2022-11-23T01:37:12.305Z,28.20
2022-11-23T01:39:39.689Z,21.15
2022-11-23T01:42:07.140Z,24.83
2022-11-23T01:44:36.857Z,23.92
2022-11-23T01:47:06.286Z,24.33
2022-11-23T01:49:37.028Z,23.98
2022-11-23T01:52:09.730Z,21.05
2022-11-23T01:54:43.764Z,25.75
2022-11-23T01:57:18.357Z,24.98
2022-11-23T01:59:46.396Z,23.67
2022-11-23T02:02:15.012Z,24.88
2022-11-23T02:04:46.076Z,21.08
2022-11-23T02:07:16.545Z,22.88
2022-11-23T02:09:47.460Z,22.13
2022-11-23T02:12:15.319Z,24.75
2022-11-23T02:14:44.995Z,22.92
2022-11-23T02:17:12.952Z,21.58
2022-11-23T02:19:46.270Z,22.83
2022-11-23T02:22:20.313Z,23.70
2022-11-23T02:24:53.308Z,26.55
2022-11-23T02:27:23.166Z,23.60
2022-11-23T02:29:52.532Z,22.10
2022-11-23T02:32:24.667Z,24.25
2022-11-23T02:34:56.310Z,26.42
2022-11-23T02:37:24.016Z,22.98
2022-11-23T02:39:54.505Z,22.77
2022-11-23T02:42:24.893Z,20.25
2022-11-23T02:45:00.029Z,22.70
2022-11-23T02:47:27.937Z,24.90
2022-11-23T02:49:55.384Z,20.75
2022-11-23T02:52:22.885Z,24.42
2022-11-23T02:54:50.251Z,22.10
2022-11-23T02:57:18.734Z,25.90
2022-11-23T02:59:48.696Z,28.33
2022-11-23T03:02:16.440Z,23.83
2022-11-23T03:04:43.908Z,21.98
2022-11-23T03:07:11.313Z,19.30
2022-11-23T03:09:39.425Z,20.60
2022-11-23T03:12:07.325Z,18.00
2022-11-23T03:14:34.858Z,16.90
2022-11-23T03:17:03.798Z,20.95
2022-11-23T03:19:36.605Z,20.30
2022-11-23T03:22:04.670Z,20.00
2022-11-23T03:24:32.576Z,19.45
2022-11-23T03:27:02.158Z,18.70
2022-11-23T03:29:29.809Z,19.83
2022-11-23T03:34:28.103Z,20.55
2022-11-23T03:36:56.773Z,20.17
2022-11-23T03:39:25.492Z,20.90
2022-11-23T03:42:13.231Z,19.27
2022-11-23T03:44:40.669Z,17.83
2022-11-23T03:47:08.205Z,22.08
2022-11-23T03:49:37.899Z,17.92
2022-11-23T03:52:05.523Z,17.60
2022-11-23T03:54:33.086Z,19.42
2022-11-23T03:57:00.611Z,17.80
2022-11-23T03:59:28.651Z,17.02
2022-11-23T04:01:57.044Z,21.05
2022-11-23T04:04:27.990Z,19.13
2022-11-23T04:07:07.934Z,20.45
2022-11-23T04:09:40.996Z,22.02
2022-11-23T04:12:21.368Z,22.55
2022-11-23T04:14:49.779Z,21.30
2022-11-23T04:17:18.581Z,18.08
2022-11-23T04:19:46.010Z,18.80
2022-11-23T04:22:16.546Z,22.65
2022-11-23T04:24:44.121Z,18.98
2022-11-23T04:27:12.123Z,17.42
2022-11-23T04:29:40.006Z,17.83
2022-11-23T04:32:08.287Z,20.15
2022-11-23T04:34:38.056Z,21.95
2022-11-23T04:37:12.906Z,20.85
2022-11-23T04:39:43.545Z,21.42
2022-11-23T04:42:40.019Z,26.00
2022-11-23T04:45:08.146Z,19.42
2022-11-23T04:47:37.147Z,23.13
2022-11-23T04:50:10.295Z,26.77
2022-11-23T04:52:38.041Z,26.85
2022-11-23T04:55:12.696Z,23.38
2022-11-23T04:57:48.348Z,34.15
2022-11-23T05:00:16.792Z,28.73
2022-11-23T05:02:45.330Z,30.92
2022-11-23T05:05:26.018Z,31.15
2022-11-23T05:07:54.646Z,26.58
2022-11-23T05:10:26.591Z,27.17
2022-11-23T05:12:58.247Z,29.52
2022-11-23T05:15:26.713Z,30.20
2022-11-23T05:17:58.988Z,30.02
2022-11-23T05:20:26.940Z,32.88
2022-11-23T05:22:54.370Z,30.92
2022-11-23T05:25:24.439Z,33.25
2022-11-23T05:28:11.439Z,28.27
2022-11-23T05:30:49.467Z,29.02
2022-11-23T05:33:16.881Z,29.23
2022-11-23T05:35:44.582Z,27.27
2022-11-23T05:38:12.293Z,30.65
2022-11-23T05:40:39.969Z,32.22
2022-11-23T05:43:10.242Z,35.73
2022-11-23T05:45:37.867Z,31.65
2022-11-23T05:48:06.045Z,31.48
2022-11-23T05:50:51.452Z,27.98
2022-11-23T05:53:28.142Z,31.95
2022-11-23T05:56:07.770Z,33.05
2022-11-23T05:58:44.851Z,30.50
2022-11-23T06:01:13.383Z,32.30
2022-11-23T06:03:41.427Z,26.52
2022-11-23T06:06:10.219Z,32.03
2022-11-23T06:08:44.401Z,30.35
2022-11-23T06:11:15.921Z,31.40
2022-11-23T06:13:46.894Z,25.95
2022-11-23T06:16:16.091Z,30.27
2022-11-23T06:18:59.621Z,26.17
2022-11-23T06:21:27.181Z,28.08
2022-11-23T06:23:54.521Z,26.38
2022-11-23T06:26:23.004Z,30.50
2022-11-23T06:28:51.825Z,31.40
2022-11-23T06:31:19.285Z,29.13
2022-11-23T06:33:47.147Z,25.35
2022-11-23T06:36:14.620Z,27.17
2022-11-23T06:38:47.223Z,29.90
2022-11-23T06:41:18.316Z,33.15
2022-11-23T06:43:47.882Z,28.63
2022-11-23T06:46:26.338Z,38.22
2022-11-23T06:48:54.235Z,38.67
2022-11-23T06:51:21.977Z,38.55
2022-11-23T06:56:19.113Z,42.60
2022-11-23T06:58:47.556Z,36.28
2022-11-23T07:01:19.801Z,42.20
2022-11-23T07:03:56.401Z,38.58
2022-11-23T07:06:31.522Z,36.63
2022-11-23T07:09:03.527Z,42.60
2022-11-23T07:11:45.132Z,36.15
2022-11-23T07:14:12.969Z,39.42
2022-11-23T07:16:43.368Z,37.90
2022-11-23T07:19:12.595Z,45.67
2022-11-23T07:21:40.262Z,35.70
2022-11-23T07:24:08.066Z,39.70
2022-11-23T07:26:35.739Z,37.10
2022-11-23T07:29:04.812Z,39.50
2022-11-23T07:31:32.652Z,40.28
2022-11-23T07:34:01.229Z,39.05
2022-11-23T07:36:30.937Z,36.85
2022-11-23T07:38:58.645Z,40.78
2022-11-23T07:41:26.034Z,36.95
2022-11-23T07:44:06.809Z,48.80
2022-11-23T07:46:34.592Z,45.67
2022-11-23T07:49:02.066Z,36.50
2022-11-23T07:51:31.627Z,40.95
2022-11-23T07:53:59.020Z,37.67
2022-11-23T07:56:26.397Z,38.97
2022-11-23T07:58:54.646Z,43.40
2022-11-23T08:01:22.032Z,39.42
2022-11-23T08:03:49.541Z,45.25
2022-11-23T08:06:17.281Z,45.47
2022-11-23T08:08:46.145Z,42.83
2022-11-23T08:11:13.651Z,41.80
2022-11-23T08:13:41.097Z,41.10
2022-11-23T08:16:08.545Z,34.75
2022-11-23T08:18:36.018Z,39.30
2022-11-23T08:21:04.156Z,43.50
2022-11-23T08:23:31.571Z,37.88
2022-11-23T08:26:06.664Z,38.28
2022-11-23T08:28:37.844Z,43.90
2022-11-23T08:31:07.241Z,38.83
2022-11-23T08:33:34.616Z,38.35
2022-11-23T08:36:04.534Z,38.20
2022-11-23T08:38:32.439Z,37.90
2022-11-23T08:41:02.459Z,38.22
2022-11-23T08:43:30.396Z,31.67
2022-11-23T08:46:03.871Z,42.92
2022-11-23T08:48:33.189Z,30.52
2022-11-23T08:51:00.681Z,46.85
2022-11-23T08:53:28.126Z,32.90
2022-11-23T08:55:55.492Z,31.83
2022-11-23T08:58:24.426Z,39.08
2022-11-23T09:00:51.830Z,36.03
2022-11-23T09:03:19.629Z,35.13
2022-11-23T09:05:47.410Z,31.65
2022-11-23T09:08:15.006Z,33.20
2022-11-23T09:10:43.007Z,38.40
2022-11-23T09:13:10.961Z,39.88
2022-11-23T09:15:39.836Z,50.63
2022-11-23T09:18:07.483Z,45.47
2022-11-23T09:20:35.324Z,41.85
2022-11-23T09:23:02.800Z,47.42
2022-11-23T09:25:30.317Z,53.22
2022-11-23T09:27:58.572Z,53.78
2022-11-23T09:30:26.897Z,57.33
2022-11-23T09:32:57.346Z,66.55
2022-11-23T09:35:44.197Z,59.05
2022-11-23T09:38:11.782Z,51.10
2022-11-23T09:40:41.026Z,49.35
2022-11-23T09:43:20.924Z,49.63
2022-11-23T09:45:50.528Z,48.05
2022-11-23T09:51:04.365Z,52.70
2022-11-23T09:53:38.553Z,52.80
2022-11-23T09:56:16.152Z,48.45
2022-11-23T09:58:43.641Z,41.97
2022-11-23T10:01:14.575Z,45.50
2022-11-23T10:03:48.799Z,46.33
2022-11-23T10:06:21.042Z,37.88
2022-11-23T10:09:09.651Z,39.55
2022-11-23T10:12:04.500Z,46.28
2022-11-23T10:14:47.799Z,41.05
2022-11-23T10:17:23.631Z,41.25
2022-11-23T10:20:05.272Z,37.70
2022-11-23T10:22:40.182Z,48.00
2022-11-23T10:25:15.857Z,40.38
2022-11-23T10:27:46.364Z,41.42
2022-11-23T10:30:16.491Z,49.38
2022-11-23T10:32:48.803Z,51.47
2022-11-23T10:35:19.217Z,38.38
2022-11-23T10:37:46.603Z,37.38
2022-11-23T10:40:18.090Z,46.83
2022-11-23T10:42:49.978Z,48.70
2022-11-23T10:45:21.954Z,42.05
2022-11-23T10:47:51.893Z,44.28
2022-11-23T10:50:24.099Z,41.08
2022-11-23T10:52:54.973Z,41.33
2022-11-23T10:55:27.606Z,39.78
2022-11-23T10:57:55.463Z,46.70
2022-11-23T11:00:30.320Z,51.15
2022-11-23T11:03:00.020Z,48.95
2022-11-23T11:06:06.858Z,42.00
2022-11-23T11:08:21.905Z,42.10
2022-11-23T11:13:25.296Z,51.22
2022-11-23T11:15:55.766Z,48.95
2022-11-23T11:18:28.130Z,43.40
2022-11-23T11:21:03.807Z,47.03
2022-11-23T11:23:32.986Z,46.83
2022-11-23T11:26:07.387Z,47.58
2022-11-23T11:28:37.576Z,54.00
2022-11-23T11:31:30.012Z,51.05
2022-11-23T11:34:07.984Z,45.83
2022-11-23T11:36:41.257Z,43.28
2022-11-23T11:39:19.462Z,54.65
2022-11-23T11:41:49.364Z,48.90
2022-11-23T11:44:21.867Z,53.92
2022-11-23T11:46:54.481Z,54.05
2022-11-23T11:49:25.539Z,50.70
2022-11-23T11:51:59.608Z,45.45
2022-11-23T11:54:35.332Z,47.00
2022-11-23T11:57:07.326Z,46.58
2022-11-23T11:59:39.853Z,49.25
2022-11-23T12:02:19.269Z,48.90
2022-11-23T12:04:56.509Z,45.08
2022-11-23T12:07:30.677Z,45.53
2022-11-23T12:10:05.365Z,41.20
2022-11-23T12:12:35.729Z,45.45
2022-11-23T12:15:15.261Z,42.45
2022-11-23T12:18:15.953Z,44.80
2022-11-23T12:20:51.265Z,46.38
2022-11-23T12:23:33.011Z,51.30
2022-11-23T12:26:12.934Z,50.92
2022-11-23T12:28:58.537Z,45.50
2022-11-23T12:31:39.733Z,38.85
2022-11-23T12:34:19.894Z,39.50
2022-11-23T12:37:10.656Z,49.45
2022-11-23T12:40:19.393Z,45.88
2022-11-23T12:42:48.625Z,39.85
2022-11-23T12:45:35.442Z,42.35
2022-11-23T12:48:18.346Z,60.83
2022-11-23T12:50:52.721Z,51.17
2022-11-23T12:53:34.527Z,43.88
2022-11-23T12:56:12.585Z,38.10
2022-11-23T12:58:42.633Z,49.40
2022-11-23T13:01:15.328Z,41.95
2022-11-23T13:04:25.376Z,40.83
2022-11-23T13:07:31.641Z,40.85
2022-11-23T13:10:30.683Z,44.95
2022-11-23T13:13:22.390Z,57.33
2022-11-23T13:16:12.154Z,49.10
2022-11-23T13:19:00.157Z,45.60
2022-11-23T13:21:36.500Z,65.10
2022-11-23T13:24:04.592Z,41.58
2022-11-23T13:26:32.183Z,43.13
2022-11-23T13:29:35.678Z,54.78
2022-11-23T13:32:43.784Z,42.17
2022-11-23T13:35:40.600Z,58.72
2022-11-23T13:38:26.769Z,51.13
2022-11-23T13:40:55.366Z,52.65
2022-11-23T13:43:26.408Z,47.03
2022-11-23T13:46:22.933Z,43.72
2022-11-23T13:48:59.290Z,43.42
2022-11-23T13:51:29.111Z,45.35
2022-11-23T13:54:00.197Z,51.30
2022-11-23T13:56:33.323Z,40.65
2022-11-23T13:59:25.806Z,40.17
2022-11-23T14:02:34.312Z,52.15
2022-11-23T14:05:53.884Z,57.85
2022-11-23T14:08:22.257Z,55.10
2022-11-23T14:10:50.852Z,48.63
2022-11-23T14:13:24.074Z,42.47
2022-11-23T14:15:57.747Z,39.08
2022-11-23T14:18:40.482Z,37.00
2022-11-23T14:21:13.613Z,43.53
2022-11-23T14:24:14.213Z,43.22
2022-11-23T14:26:52.180Z,39.80
2022-11-23T14:29:31.201Z,46.67
2022-11-23T14:32:14.174Z,34.90
2022-11-23T14:34:53.617Z,38.22
2022-11-23T14:37:32.273Z,38.88
2022-11-23T14:40:12.444Z,33.67
2022-11-23T14:42:43.605Z,29.63
2022-11-23T14:45:14.353Z,38.95
2022-11-23T14:47:41.734Z,35.60
2022-11-23T14:50:23.313Z,40.72
2022-11-23T14:52:53.155Z,28.02
2022-11-23T14:55:23.500Z,37.30
2022-11-23T14:57:58.777Z,28.75
2022-11-23T15:00:33.274Z,34.50
2022-11-23T15:03:27.090Z,29.17
2022-11-23T15:05:59.542Z,34.15
2022-11-23T15:08:32.934Z,27.52
2022-11-23T15:11:05.991Z,24.55
2022-11-23T15:13:44.160Z,27.60
2022-11-23T15:16:14.563Z,23.90
2022-11-23T15:18:42.327Z,28.10
2022-11-23T15:21:23.946Z,30.75
2022-11-23T15:23:58.045Z,23.10
2022-11-23T15:26:47.557Z,27.08
2022-11-23T15:32:22.233Z,28.55
2022-11-23T15:34:43.401Z,19.25
2022-11-23T15:37:11.831Z,27.10
2022-11-23T15:39:41.896Z,23.20
2022-11-23T15:42:15.175Z,21.70
2022-11-23T15:44:46.199Z,25.20
2022-11-23T15:47:22.137Z,23.98
2022-11-23T15:49:50.672Z,21.73
2022-11-23T15:52:20.101Z,22.88
2022-11-23T15:54:49.451Z,23.02
2022-11-23T15:57:20.760Z,19.85
2022-11-23T15:59:50.630Z,20.52
2022-11-23T16:02:22.668Z,30.13
2022-11-23T16:05:04.357Z,25.55
2022-11-23T16:07:32.212Z,21.45
2022-11-23T16:10:18.176Z,21.45
2022-11-23T16:12:50.358Z,22.33
2022-11-23T16:15:41.256Z,27.77
2022-11-23T16:18:22.141Z,22.10
2022-11-23T16:20:52.600Z,23.73
2022-11-23T16:23:22.638Z,21.10
2022-11-23T16:25:58.531Z,25.77
2022-11-23T16:28:30.096Z,24.65
2022-11-23T16:30:58.404Z,25.27
2022-11-23T16:33:26.777Z,23.93
2022-11-23T16:35:54.200Z,23.15
2022-11-23T16:38:21.917Z,31.63
2022-11-23T16:40:49.608Z,24.85
2022-11-23T16:43:18.971Z,20.00
2022-11-23T16:45:49.678Z,23.45
2022-11-23T16:48:40.286Z,23.70
2022-11-23T16:51:10.391Z,21.48
2022-11-23T16:54:07.903Z,28.30
2022-11-23T16:56:27.116Z,25.15
2022-11-23T16:58:56.379Z,27.55
2022-11-23T17:01:26.243Z,23.75
2022-11-23T17:03:54.198Z,23.80
2022-11-23T17:06:22.060Z,27.58
2022-11-23T17:08:57.711Z,22.17
2022-11-23T17:11:28.637Z,23.90
2022-11-23T17:13:58.458Z,18.88
2022-11-23T17:16:26.747Z,24.15
2022-11-23T17:18:54.488Z,24.13
2022-11-23T17:21:22.110Z,20.25
2022-11-23T17:23:50.014Z,18.63
2022-11-23T17:26:33.209Z,17.02
2022-11-23T17:29:04.892Z,24.67
2022-11-23T17:31:33.007Z,25.55
2022-11-23T17:34:00.534Z,22.83
2022-11-23T17:36:30.496Z,28.20
2022-11-23T17:38:58.381Z,18.70
2022-11-23T17:41:25.984Z,21.17
2022-11-23T17:43:53.382Z,17.75
2022-11-23T17:46:23.952Z,16.13
2022-11-23T17:48:55.330Z,21.58
2022-11-23T17:51:23.893Z,17.23
2022-11-23T17:53:51.616Z,14.85
2022-11-23T17:56:20.578Z,13.48
2022-11-23T17:58:48.343Z,21.45
2022-11-23T18:01:18.376Z,15.43
2022-11-23T18:03:47.559Z,17.85
2022-11-23T18:06:16.882Z,14.60
2022-11-23T18:08:45.911Z,19.33
2022-11-23T18:11:14.020Z,14.68
2022-11-23T18:13:42.998Z,15.88
2022-11-23T18:16:11.058Z,16.52
2022-11-23T18:18:38.834Z,20.38
2022-11-23T18:21:08.415Z,18.20
2022-11-23T18:23:36.334Z,14.75
2022-11-23T18:26:05.981Z,16.98
2022-11-23T18:31:00.701Z,13.75
2022-11-23T18:33:28.182Z,14.68
2022-11-23T18:35:58.175Z,14.95
2022-11-23T18:38:31.305Z,14.85
2022-11-23T18:40:58.706Z,15.52
2022-11-23T18:43:26.683Z,14.02
2022-11-23T18:45:54.250Z,14.70
2022-11-23T18:48:21.797Z,14.55
2022-11-23T18:50:49.843Z,15.95
2022-11-23T18:53:17.402Z,13.82
2022-11-23T18:55:46.285Z,17.95
2022-11-23T18:58:14.508Z,15.25
2022-11-23T19:00:42.052Z,14.77
2022-11-23T19:03:09.470Z,14.75
2022-11-23T19:05:37.207Z,13.20
2022-11-23T19:08:06.941Z,14.77
2022-11-23T19:10:36.768Z,13.52
2022-11-23T19:13:06.207Z,14.52
2022-11-23T19:15:34.147Z,14.32
2022-11-23T19:18:01.639Z,13.70
2022-11-23T19:20:29.399Z,13.02
2022-11-23T19:22:57.400Z,13.55
2022-11-23T19:25:25.311Z,13.85
2022-11-23T19:27:52.708Z,13.43
2022-11-23T19:30:22.208Z,14.18
2022-11-23T19:32:49.610Z,11.77
2022-11-23T19:35:17.212Z,14.35
2022-11-23T19:37:44.744Z,10.55
2022-11-23T19:40:12.602Z,12.73
2022-11-23T19:42:40.127Z,13.93
2022-11-23T19:45:08.630Z,12.98
2022-11-23T19:47:37.582Z,14.30
2022-11-23T19:50:06.163Z,15.38
2022-11-23T19:53:03.624Z,11.27
2022-11-23T19:55:20.946Z,12.07
2022-11-23T19:57:48.408Z,10.85
2022-11-23T20:00:17.309Z,11.48
2022-11-23T20:02:46.171Z,12.63
2022-11-23T20:05:13.716Z,11.07
2022-11-23T20:07:41.162Z,10.98
2022-11-23T20:10:09.235Z,15.40
2022-11-23T20:12:36.594Z,11.00
2022-11-23T20:15:04.571Z,13.68
2022-11-23T20:17:31.905Z,13.18
2022-11-23T20:20:00.740Z,10.75
2022-11-23T20:22:28.086Z,12.07
2022-11-23T20:24:55.402Z,12.32
2022-11-23T20:27:22.778Z,10.60
2022-11-23T20:29:50.101Z,10.95
2022-11-23T20:32:17.589Z,13.95
2022-11-23T20:34:45.049Z,12.93
2022-11-23T20:37:14.353Z,9.73
2022-11-23T20:39:41.703Z,13.10
2022-11-23T20:42:09.066Z,9.38
2022-11-23T20:44:36.542Z,10.05
2022-11-23T20:47:04.237Z,11.05
2022-11-23T20:49:32.072Z,9.93
2022-11-23T20:51:59.700Z,13.88
2022-11-23T20:54:28.529Z,10.23
2022-11-23T20:56:56.017Z,9.17
2022-11-23T20:59:23.390Z,8.90
2022-11-23T21:01:50.787Z,7.93
2022-11-23T21:04:18.181Z,10.80
2022-11-23T21:06:45.486Z,11.02
2022-11-23T21:09:12.824Z,10.38
2022-11-23T21:11:41.798Z,9.75
2022-11-23T21:14:17.544Z,10.45
2022-11-23T21:16:47.019Z,10.80
2022-11-23T21:19:15.046Z,8.70
2022-11-23T21:21:42.390Z,9.48
2022-11-23T21:24:10.085Z,9.88
2022-11-23T21:26:37.641Z,9.82
2022-11-23T21:29:07.130Z,9.98
2022-11-23T21:31:34.508Z,9.73
2022-11-23T21:34:01.981Z,9.32
2022-11-23T21:36:29.316Z,9.80
2022-11-23T21:38:56.669Z,11.95
2022-11-23T21:41:24.008Z,10.15
2022-11-23T21:43:54.703Z,11.95
2022-11-23T21:46:24.176Z,11.35
2022-11-23T21:48:53.231Z,10.35
2022-11-23T21:51:20.609Z,10.77
2022-11-23T21:53:47.970Z,10.68
2022-11-23T21:56:18.908Z,10.20
2022-11-23T21:58:46.251Z,9.13
2022-11-23T22:01:15.619Z,10.25
2022-11-23T22:03:46.132Z,10.43
2022-11-23T22:06:18.878Z,11.63
2022-11-23T22:08:49.670Z,9.43
2022-11-23T22:11:18.874Z,11.52
2022-11-23T22:13:46.481Z,9.80
2022-11-23T22:16:16.749Z,10.07
2022-11-23T22:18:47.803Z,10.60
2022-11-23T22:21:18.260Z,11.70
2022-11-23T22:23:46.181Z,9.55
2022-11-23T22:26:15.561Z,10.60
2022-11-23T22:28:44.521Z,9.80
2022-11-23T22:31:13.649Z,10.65
2022-11-23T22:33:41.883Z,10.02
2022-11-23T22:36:13.009Z,10.13
2022-11-23T22:38:40.815Z,8.80
2022-11-23T22:41:10.452Z,8.07
2022-11-23T22:43:38.122Z,8.40
2022-11-23T22:46:07.421Z,8.35
2022-11-23T22:48:36.855Z,9.77
2022-11-23T22:51:04.817Z,7.85
2022-11-23T22:53:34.099Z,8.75
2022-11-23T22:56:02.568Z,6.53
2022-11-23T22:58:30.196Z,8.95
2022-11-23T23:00:57.687Z,7.60
2022-11-23T23:03:25.570Z,6.97
2022-11-23T23:05:56.069Z,7.90
2022-11-23T23:08:23.742Z,7.30
2022-11-23T23:10:52.782Z,7.88
2022-11-23T23:13:20.863Z,8.68
2022-11-23T23:15:48.658Z,7.53
2022-11-23T23:18:16.514Z,8.43
2022-11-23T23:20:43.896Z,7.07
2022-11-23T23:23:11.225Z,7.95
2022-11-23T23:25:38.648Z,6.55
2022-11-23T23:28:07.487Z,7.45
2022-11-23T23:30:34.781Z,6.90
2022-11-23T23:33:02.138Z,7.30
2022-11-23T23:35:29.443Z,7.70
2022-11-23T23:37:56.761Z,7.00
2022-11-23T23:40:24.062Z,8.43
2022-11-23T23:42:51.820Z,7.60
2022-11-23T23:45:20.572Z,6.15
2022-11-23T23:47:47.933Z,6.50
2022-11-23T23:50:15.596Z,5.38
2022-11-23T23:52:42.928Z,7.35
2022-11-23T23:55:10.378Z,7.47
2022-11-23T23:57:37.752Z,5.45
